createdAt,value
2023-01-30T00:00:31.391Z,39.95
2023-01-30T00:01:34.939Z,40.25
2023-01-30T00:02:37.320Z,39.52
2023-01-30T00:03:39.672Z,39.58
2023-01-30T00:04:42.075Z,39.30
2023-01-30T00:05:44.411Z,39.22
2023-01-30T00:06:46.832Z,38.25
2023-01-30T00:07:49.313Z,38.00
2023-01-30T00:08:51.871Z,38.03
2023-01-30T00:09:54.375Z,37.83
2023-01-30T00:10:56.739Z,39.32
2023-01-30T00:11:59.090Z,39.40
2023-01-30T00:13:01.471Z,38.95
2023-01-30T00:14:04.017Z,40.03
2023-01-30T00:15:07.115Z,38.98
2023-01-30T00:16:10.510Z,37.52
2023-01-30T00:17:12.940Z,38.12
2023-01-30T00:18:15.318Z,38.13
2023-01-30T00:19:17.716Z,38.17
2023-01-30T00:20:20.257Z,39.10
2023-01-30T00:21:22.894Z,39.55
2023-01-30T00:22:25.241Z,38.88
2023-01-30T00:23:28.347Z,39.55
2023-01-30T00:24:31.086Z,39.42
2023-01-30T00:25:33.619Z,39.38
2023-01-30T00:26:36.047Z,39.90
2023-01-30T00:27:38.450Z,39.45
2023-01-30T00:28:40.873Z,38.33
2023-01-30T00:29:45.695Z,39.80
2023-01-30T00:30:53.325Z,39.58
2023-01-30T00:31:55.807Z,38.87
2023-01-30T00:32:59.658Z,40.22
2023-01-30T00:34:01.999Z,42.57
2023-01-30T00:35:04.665Z,41.12
2023-01-30T00:36:07.380Z,41.62
2023-01-30T00:37:09.760Z,40.78
2023-01-30T00:38:12.108Z,40.38
2023-01-30T00:39:14.520Z,40.32
2023-01-30T00:40:17.446Z,38.88
2023-01-30T00:41:20.073Z,40.02
2023-01-30T00:42:40.647Z,39.78
2023-01-30T00:44:01.444Z,40.87
2023-01-30T00:45:22.515Z,40.47
2023-01-30T00:46:50.156Z,40.18
2023-01-30T00:47:52.484Z,40.08
2023-01-30T00:48:54.846Z,40.47
2023-01-30T00:49:57.225Z,39.93
2023-01-30T00:50:59.591Z,40.73
2023-01-30T00:52:02.483Z,40.45
2023-01-30T00:53:04.855Z,40.68
2023-01-30T00:54:07.366Z,38.20
2023-01-30T00:55:10.023Z,39.83
2023-01-30T00:56:12.432Z,40.02
2023-01-30T00:57:14.837Z,39.42
2023-01-30T00:58:17.358Z,38.65
2023-01-30T00:59:19.750Z,40.80
2023-01-30T01:00:23.407Z,41.40
2023-01-30T01:01:25.937Z,39.75
2023-01-30T01:02:28.327Z,39.62
2023-01-30T01:03:30.696Z,39.60
2023-01-30T01:04:43.390Z,39.85
2023-01-30T01:05:46.417Z,40.47
2023-01-30T01:06:48.796Z,40.22
2023-01-30T01:07:51.170Z,39.57
2023-01-30T01:08:53.584Z,39.22
2023-01-30T01:09:56.001Z,38.47
2023-01-30T01:11:00.565Z,39.97
2023-01-30T01:12:03.094Z,39.65
2023-01-30T01:13:07.044Z,40.12
2023-01-30T01:14:09.375Z,39.97
2023-01-30T01:15:12.799Z,39.57
2023-01-30T01:16:15.157Z,39.98
2023-01-30T01:17:17.494Z,40.27
2023-01-30T01:18:19.937Z,40.18
2023-01-30T01:19:22.361Z,39.38
2023-01-30T01:20:24.821Z,40.32
2023-01-30T01:21:27.253Z,40.65
2023-01-30T01:22:29.605Z,38.50
2023-01-30T01:23:31.954Z,39.47
2023-01-30T01:24:34.287Z,38.23
2023-01-30T01:25:36.688Z,39.70
2023-01-30T01:26:39.322Z,39.55
2023-01-30T01:27:41.687Z,40.22
2023-01-30T01:28:44.174Z,40.45
2023-01-30T01:29:46.524Z,39.12
2023-01-30T01:30:48.914Z,39.25
2023-01-30T01:31:51.337Z,40.52
2023-01-30T01:32:53.696Z,40.60
2023-01-30T01:33:56.693Z,39.62
2023-01-30T01:34:59.029Z,39.47
2023-01-30T01:36:03.624Z,38.93
2023-01-30T01:37:06.848Z,39.47
2023-01-30T01:38:09.797Z,39.15
2023-01-30T01:39:12.176Z,40.18
2023-01-30T01:40:40.276Z,39.45
2023-01-30T01:41:42.660Z,40.15
2023-01-30T01:42:45.707Z,39.40
2023-01-30T01:44:06.721Z,39.53
2023-01-30T01:45:09.068Z,37.92
2023-01-30T01:46:20.879Z,39.63
2023-01-30T01:47:23.250Z,40.38
2023-01-30T01:48:42.328Z,39.47
2023-01-30T01:49:44.705Z,40.30
2023-01-30T01:50:53.615Z,40.25
2023-01-30T01:52:16.262Z,39.13
2023-01-30T01:53:22.049Z,41.12
2023-01-30T01:54:47.306Z,41.23
2023-01-30T01:55:53.528Z,40.50
2023-01-30T01:56:55.925Z,41.33
2023-01-30T01:58:06.071Z,42.88
2023-01-30T01:59:26.835Z,42.57
2023-01-30T02:00:48.036Z,42.82
2023-01-30T02:01:51.320Z,42.67
2023-01-30T02:02:59.404Z,42.08
2023-01-30T02:04:04.901Z,43.18
2023-01-30T02:05:11.127Z,43.32
2023-01-30T02:06:15.359Z,42.10
2023-01-30T02:07:21.513Z,41.82
2023-01-30T02:08:29.201Z,40.85
2023-01-30T02:09:31.802Z,41.65
2023-01-30T02:11:04.876Z,40.77
2023-01-30T02:12:07.362Z,40.70
2023-01-30T02:13:09.745Z,41.25
2023-01-30T02:14:13.213Z,39.90
2023-01-30T02:15:15.792Z,39.87
2023-01-30T02:16:18.478Z,39.97
2023-01-30T02:17:21.022Z,40.03
2023-01-30T02:18:23.456Z,39.87
2023-01-30T02:19:45.430Z,39.35
2023-01-30T02:21:06.452Z,40.88
2023-01-30T02:22:36.838Z,38.33
2023-01-30T02:24:07.187Z,39.02
2023-01-30T02:25:50.742Z,39.22
2023-01-30T02:26:53.097Z,37.50
2023-01-30T02:28:03.660Z,37.82
2023-01-30T02:29:05.932Z,39.50
2023-01-30T02:30:22.253Z,38.33
2023-01-30T02:31:28.615Z,39.42
2023-01-30T02:32:40.096Z,39.87
2023-01-30T02:33:48.261Z,39.73
2023-01-30T02:34:50.546Z,42.02
2023-01-30T02:36:03.655Z,43.75
2023-01-30T02:37:28.286Z,44.80
2023-01-30T02:38:33.157Z,45.92
2023-01-30T02:39:50.915Z,43.52
2023-01-30T02:41:04.883Z,41.90
2023-01-30T02:42:37.918Z,41.20
2023-01-30T02:43:53.050Z,40.72
2023-01-30T02:45:12.357Z,38.75
2023-01-30T02:46:17.874Z,38.42
2023-01-30T02:47:35.213Z,38.65
2023-01-30T02:48:48.376Z,37.30
2023-01-30T02:50:00.767Z,38.82
2023-01-30T02:51:06.710Z,38.23
2023-01-30T02:52:12.102Z,38.72
2023-01-30T02:53:14.503Z,38.08
2023-01-30T02:54:17.073Z,37.77
2023-01-30T02:55:22.615Z,37.62
2023-01-30T02:56:25.003Z,37.20
2023-01-30T02:57:27.406Z,37.57
2023-01-30T02:58:36.317Z,36.65
2023-01-30T02:59:43.191Z,37.27
2023-01-30T03:01:04.669Z,36.90
2023-01-30T03:02:44.001Z,36.65
2023-01-30T03:04:18.500Z,37.82
2023-01-30T03:06:02.379Z,38.07
2023-01-30T03:07:35.147Z,42.82
2023-01-30T03:09:09.053Z,38.53
2023-01-30T03:10:26.544Z,38.37
2023-01-30T03:11:44.348Z,41.33
2023-01-30T03:12:53.972Z,42.80
2023-01-30T03:14:13.356Z,40.78
2023-01-30T03:15:28.638Z,39.53
2023-01-30T03:16:36.938Z,44.48
2023-01-30T03:17:42.733Z,41.00
2023-01-30T03:18:46.053Z,38.90
2023-01-30T03:19:48.615Z,37.40
2023-01-30T03:20:51.648Z,36.70
2023-01-30T03:21:54.472Z,38.90
2023-01-30T03:22:56.915Z,36.97
2023-01-30T03:23:59.367Z,36.73
2023-01-30T03:25:01.898Z,36.92
2023-01-30T03:26:05.312Z,37.30
2023-01-30T03:27:12.424Z,38.28
2023-01-30T03:28:18.885Z,37.40
2023-01-30T03:29:21.323Z,37.02
2023-01-30T03:30:26.216Z,38.23
2023-01-30T03:31:28.692Z,38.00
2023-01-30T03:32:31.133Z,36.97
2023-01-30T03:33:33.562Z,37.08
2023-01-30T03:34:35.888Z,35.90
2023-01-30T03:35:38.336Z,37.55
2023-01-30T03:36:41.004Z,37.60
2023-01-30T03:37:45.091Z,38.50
2023-01-30T03:38:47.429Z,36.70
2023-01-30T03:39:49.791Z,37.10
2023-01-30T03:40:52.101Z,37.27
2023-01-30T03:41:54.563Z,37.55
2023-01-30T03:42:56.937Z,38.30
2023-01-30T03:43:59.388Z,37.48
2023-01-30T03:45:01.768Z,37.58
2023-01-30T03:46:04.267Z,36.83
2023-01-30T03:47:06.820Z,37.55
2023-01-30T03:48:09.264Z,37.50
2023-01-30T03:49:11.708Z,37.17
2023-01-30T03:50:14.255Z,37.88
2023-01-30T03:51:16.699Z,36.63
2023-01-30T03:52:19.053Z,37.03
2023-01-30T03:53:21.463Z,37.60
2023-01-30T03:54:23.888Z,38.23
2023-01-30T03:55:26.233Z,38.18
2023-01-30T03:56:28.806Z,37.43
2023-01-30T03:57:31.149Z,37.10
2023-01-30T03:58:33.580Z,37.60
2023-01-30T03:59:35.924Z,37.97
2023-01-30T04:00:38.266Z,37.42
2023-01-30T04:01:40.605Z,37.55
2023-01-30T04:02:43.193Z,36.85
2023-01-30T04:03:46.221Z,36.58
2023-01-30T04:04:49.588Z,37.27
2023-01-30T04:05:51.950Z,39.08
2023-01-30T04:06:54.542Z,38.27
2023-01-30T04:07:58.009Z,37.47
2023-01-30T04:09:00.401Z,38.05
2023-01-30T04:10:02.770Z,37.85
2023-01-30T04:11:07.828Z,38.42
2023-01-30T04:12:10.215Z,37.35
2023-01-30T04:13:12.546Z,37.50
2023-01-30T04:14:14.916Z,38.12
2023-01-30T04:15:17.698Z,38.42
2023-01-30T04:16:22.605Z,38.33
2023-01-30T04:17:24.980Z,37.25
2023-01-30T04:18:27.340Z,37.40
2023-01-30T04:19:29.730Z,37.33
2023-01-30T04:20:32.116Z,38.08
2023-01-30T04:21:34.509Z,37.47
2023-01-30T04:22:36.972Z,37.70
2023-01-30T04:23:39.521Z,37.30
2023-01-30T04:24:41.868Z,37.25
2023-01-30T04:25:46.821Z,38.13
2023-01-30T04:26:49.189Z,39.48
2023-01-30T04:27:51.548Z,38.57
2023-01-30T04:28:54.011Z,37.98
2023-01-30T04:29:56.377Z,38.02
2023-01-30T04:30:58.813Z,39.08
2023-01-30T04:32:01.215Z,38.82
2023-01-30T04:33:03.660Z,37.45
2023-01-30T04:34:06.037Z,40.45
2023-01-30T04:35:08.700Z,41.97
2023-01-30T04:36:12.732Z,42.02
2023-01-30T04:37:15.101Z,42.97
2023-01-30T04:38:17.444Z,42.12
2023-01-30T04:39:21.242Z,41.27
2023-01-30T04:40:24.424Z,40.93
2023-01-30T04:41:26.815Z,41.07
2023-01-30T04:42:29.252Z,40.30
2023-01-30T04:43:32.349Z,39.20
2023-01-30T04:44:34.763Z,40.38
2023-01-30T04:45:37.113Z,40.78
2023-01-30T04:46:39.468Z,41.25
2023-01-30T04:47:41.857Z,39.50
2023-01-30T04:48:44.605Z,40.03
2023-01-30T04:49:47.018Z,40.37
2023-01-30T04:50:50.787Z,41.32
2023-01-30T04:51:53.218Z,40.57
2023-01-30T04:52:58.571Z,40.17
2023-01-30T04:54:00.944Z,41.03
2023-01-30T04:55:03.483Z,40.43
2023-01-30T04:56:06.443Z,40.95
2023-01-30T04:57:08.893Z,41.08
2023-01-30T04:58:11.288Z,41.53
2023-01-30T04:59:13.705Z,42.65
2023-01-30T05:00:16.502Z,42.48
2023-01-30T05:01:26.587Z,43.12
2023-01-30T05:02:29.063Z,42.60
2023-01-30T05:03:31.377Z,42.10
2023-01-30T05:04:33.894Z,42.28
2023-01-30T05:05:36.428Z,42.60
2023-01-30T05:06:38.814Z,42.65
2023-01-30T05:07:41.238Z,43.52
2023-01-30T05:08:46.560Z,42.58
2023-01-30T05:09:49.219Z,41.45
2023-01-30T05:10:51.557Z,40.93
2023-01-30T05:11:53.881Z,40.65
2023-01-30T05:12:56.268Z,41.68
2023-01-30T05:14:01.101Z,41.07
2023-01-30T05:15:03.645Z,41.03
2023-01-30T05:16:06.233Z,40.22
2023-01-30T05:17:08.767Z,40.33
2023-01-30T05:18:11.185Z,40.68
2023-01-30T05:19:14.085Z,41.00
2023-01-30T05:20:16.511Z,41.65
2023-01-30T05:21:27.951Z,40.83
2023-01-30T05:22:30.389Z,39.28
2023-01-30T05:23:32.925Z,39.42
2023-01-30T05:24:35.271Z,39.58
2023-01-30T05:25:37.597Z,41.48
2023-01-30T05:26:39.996Z,40.88
2023-01-30T05:27:42.366Z,40.48
2023-01-30T05:29:06.300Z,40.12
2023-01-30T05:30:29.123Z,41.27
2023-01-30T05:31:31.535Z,40.72
2023-01-30T05:32:33.952Z,41.07
2023-01-30T05:33:36.327Z,39.58
2023-01-30T05:34:38.680Z,40.63
2023-01-30T05:35:47.362Z,41.15
2023-01-30T05:36:49.702Z,42.13
2023-01-30T05:37:52.615Z,44.30
2023-01-30T05:38:54.978Z,45.32
2023-01-30T05:39:57.321Z,44.47
2023-01-30T05:41:07.735Z,43.07
2023-01-30T05:42:10.134Z,43.63
2023-01-30T05:43:12.562Z,42.13
2023-01-30T05:44:14.958Z,42.57
2023-01-30T05:45:17.754Z,43.60
2023-01-30T05:46:20.604Z,42.53
2023-01-30T05:47:23.001Z,43.63
2023-01-30T05:48:25.903Z,44.25
2023-01-30T05:49:28.295Z,45.97
2023-01-30T05:50:31.588Z,45.37
2023-01-30T05:51:34.295Z,44.40
2023-01-30T05:52:36.654Z,44.67
2023-01-30T05:53:39.031Z,46.45
2023-01-30T05:54:41.415Z,47.87
2023-01-30T05:55:43.932Z,45.88
2023-01-30T05:56:49.904Z,46.47
2023-01-30T05:57:52.284Z,46.93
2023-01-30T05:58:56.419Z,47.98
2023-01-30T05:59:58.803Z,51.87
2023-01-30T06:01:03.605Z,51.37
2023-01-30T06:02:05.985Z,55.65
2023-01-30T06:03:08.373Z,54.07
2023-01-30T06:04:10.786Z,55.93
2023-01-30T06:05:13.139Z,54.90
2023-01-30T06:06:15.528Z,54.68
2023-01-30T06:07:17.907Z,53.85
2023-01-30T06:08:20.323Z,55.23
2023-01-30T06:09:22.699Z,53.70
2023-01-30T06:10:25.024Z,53.43
2023-01-30T06:11:27.928Z,52.82
2023-01-30T06:12:30.251Z,54.22
2023-01-30T06:13:32.742Z,54.48
2023-01-30T06:14:35.068Z,55.63
2023-01-30T06:15:37.885Z,55.58
2023-01-30T06:16:40.431Z,55.22
2023-01-30T06:17:45.746Z,56.30
2023-01-30T06:18:48.245Z,58.22
2023-01-30T06:19:51.032Z,56.78
2023-01-30T06:20:54.068Z,58.17
2023-01-30T06:21:57.282Z,58.67
2023-01-30T06:22:59.807Z,61.63
2023-01-30T06:24:02.522Z,63.75
2023-01-30T06:25:05.592Z,64.17
2023-01-30T06:26:09.314Z,66.85
2023-01-30T06:27:12.041Z,69.25
2023-01-30T06:28:15.828Z,70.77
2023-01-30T06:29:18.209Z,73.17
2023-01-30T06:30:20.620Z,76.07
2023-01-30T06:31:23.054Z,72.22
2023-01-30T06:32:25.664Z,69.35
2023-01-30T06:33:28.341Z,66.15
2023-01-30T06:34:30.868Z,63.65
2023-01-30T06:35:36.485Z,124.50
2023-01-30T06:36:38.964Z,172.17
2023-01-30T06:37:41.380Z,124.38
2023-01-30T06:38:43.828Z,109.58
2023-01-30T06:39:46.233Z,89.43
2023-01-30T06:40:50.837Z,100.70
2023-01-30T06:41:53.311Z,118.35
2023-01-30T06:42:56.199Z,89.38
2023-01-30T06:43:58.675Z,74.75
2023-01-30T06:45:01.124Z,68.48
2023-01-30T06:46:03.695Z,67.90
2023-01-30T06:47:06.348Z,68.10
2023-01-30T06:48:09.108Z,67.12
2023-01-30T06:49:11.577Z,66.72
2023-01-30T06:50:14.927Z,66.60
2023-01-30T06:51:17.483Z,66.37
2023-01-30T06:52:19.938Z,67.50
2023-01-30T06:53:25.564Z,68.02
2023-01-30T06:54:28.000Z,66.65
2023-01-30T06:55:30.618Z,67.42
2023-01-30T06:56:33.022Z,68.22
2023-01-30T06:57:35.672Z,64.17
2023-01-30T06:58:38.244Z,64.77
2023-01-30T06:59:40.734Z,64.15
2023-01-30T07:00:44.113Z,63.33
2023-01-30T07:01:46.616Z,63.80
2023-01-30T07:02:49.221Z,72.42
2023-01-30T07:03:51.677Z,76.93
2023-01-30T07:04:54.130Z,78.98
2023-01-30T07:05:58.893Z,78.65
2023-01-30T07:07:01.443Z,78.90
2023-01-30T07:08:03.819Z,78.87
2023-01-30T07:09:06.305Z,82.33
2023-01-30T07:10:09.523Z,81.82
2023-01-30T07:11:12.249Z,78.22
2023-01-30T07:12:14.809Z,79.42
2023-01-30T07:13:17.335Z,77.85
2023-01-30T07:14:20.043Z,78.65
2023-01-30T07:15:22.453Z,78.98
2023-01-30T07:16:29.302Z,82.40
2023-01-30T07:17:31.772Z,81.03
2023-01-30T07:18:35.670Z,77.97
2023-01-30T07:19:39.163Z,73.97
2023-01-30T07:20:42.401Z,70.27
2023-01-30T07:21:44.803Z,67.22
2023-01-30T07:22:54.437Z,61.97
2023-01-30T07:23:59.292Z,57.63
2023-01-30T07:25:01.774Z,54.48
2023-01-30T07:26:07.319Z,53.60
2023-01-30T07:27:11.322Z,51.77
2023-01-30T07:28:13.715Z,50.85
2023-01-30T07:29:16.123Z,48.73
2023-01-30T07:30:19.174Z,47.92
2023-01-30T07:31:21.647Z,47.33
2023-01-30T07:32:24.113Z,48.45
2023-01-30T07:33:26.853Z,47.58
2023-01-30T07:34:29.489Z,48.12
2023-01-30T07:35:33.597Z,47.60
2023-01-30T07:36:36.119Z,47.15
2023-01-30T07:37:40.108Z,46.33
2023-01-30T07:38:42.598Z,46.43
2023-01-30T07:39:45.110Z,43.93
2023-01-30T07:40:47.571Z,42.42
2023-01-30T07:41:50.047Z,42.13
2023-01-30T07:43:11.268Z,40.42
2023-01-30T07:44:14.351Z,40.65
2023-01-30T07:45:17.005Z,41.00
2023-01-30T07:46:19.642Z,39.15
2023-01-30T07:49:53.009Z,41.97
2023-01-30T07:51:08.855Z,41.12
2023-01-30T07:52:11.971Z,39.50
2023-01-30T07:53:18.617Z,36.60
2023-01-30T07:54:21.215Z,35.78
2023-01-30T07:55:25.081Z,36.83
2023-01-30T07:56:30.481Z,36.82
2023-01-30T07:57:32.999Z,35.10
2023-01-30T07:58:35.654Z,35.40
2023-01-30T07:59:40.341Z,36.02
2023-01-30T08:00:43.231Z,36.38
2023-01-30T08:01:45.634Z,34.68
2023-01-30T08:02:48.043Z,34.38
2023-01-30T08:03:50.444Z,34.30
2023-01-30T08:04:52.862Z,34.53
2023-01-30T08:05:55.284Z,34.08
2023-01-30T08:06:58.273Z,34.73
2023-01-30T08:08:01.483Z,34.73
2023-01-30T08:09:07.264Z,34.10
2023-01-30T08:10:12.083Z,35.82
2023-01-30T08:11:15.153Z,34.58
2023-01-30T08:12:17.858Z,33.17
2023-01-30T08:13:20.412Z,33.85
2023-01-30T08:14:23.613Z,34.80
2023-01-30T08:15:26.250Z,34.37
2023-01-30T08:16:29.162Z,32.82
2023-01-30T08:17:31.845Z,33.93
2023-01-30T08:18:37.630Z,33.17
2023-01-30T08:19:40.680Z,33.20
2023-01-30T08:20:43.242Z,33.60
2023-01-30T08:21:45.668Z,34.68
2023-01-30T08:22:48.172Z,46.03
2023-01-30T08:23:51.023Z,49.82
2023-01-30T08:24:53.973Z,41.45
2023-01-30T08:26:01.835Z,39.55
2023-01-30T08:27:04.538Z,42.80
2023-01-30T08:28:07.114Z,40.33
2023-01-30T08:29:09.835Z,39.05
2023-01-30T08:30:13.347Z,44.63
2023-01-30T08:31:17.613Z,36.40
2023-01-30T08:32:20.330Z,41.63
2023-01-30T08:33:24.429Z,45.27
2023-01-30T08:34:27.204Z,38.12
2023-01-30T08:35:29.800Z,37.48
2023-01-30T08:36:34.507Z,40.10
2023-01-30T08:37:38.965Z,38.15
2023-01-30T08:38:41.655Z,38.63
2023-01-30T08:39:46.422Z,39.98
2023-01-30T08:40:52.699Z,45.60
2023-01-30T08:42:02.453Z,42.15
2023-01-30T08:43:09.953Z,55.45
2023-01-30T08:44:28.390Z,52.07
2023-01-30T08:46:10.178Z,54.92
2023-01-30T08:47:15.152Z,42.48
2023-01-30T08:48:50.155Z,35.25
2023-01-30T08:49:57.162Z,34.17
2023-01-30T08:51:05.706Z,34.05
2023-01-30T08:52:14.423Z,32.95
2023-01-30T08:53:23.047Z,32.33
2023-01-30T08:54:44.642Z,33.40
2023-01-30T08:56:19.025Z,33.67
2023-01-30T08:57:22.294Z,34.12
2023-01-30T08:58:24.703Z,32.88
2023-01-30T08:59:27.059Z,32.87
2023-01-30T09:00:29.760Z,33.73
2023-01-30T09:01:32.330Z,32.50
2023-01-30T09:02:35.241Z,32.00
2023-01-30T09:03:37.679Z,31.50
2023-01-30T09:04:40.452Z,34.13
2023-01-30T09:05:43.117Z,33.42
2023-01-30T09:06:45.484Z,32.18
2023-01-30T09:07:47.898Z,32.57
2023-01-30T09:08:50.267Z,33.17
2023-01-30T09:09:52.635Z,32.32
2023-01-30T09:10:59.523Z,32.68
2023-01-30T09:12:01.955Z,33.03
2023-01-30T09:13:05.575Z,31.25
2023-01-30T09:14:08.073Z,32.05
2023-01-30T09:15:11.049Z,31.93
2023-01-30T09:16:13.469Z,32.03
2023-01-30T09:17:16.000Z,31.65
2023-01-30T09:18:18.339Z,31.17
2023-01-30T09:19:21.582Z,31.52
2023-01-30T09:20:25.733Z,30.25
2023-01-30T09:21:28.627Z,30.02
2023-01-30T09:22:30.999Z,30.03
2023-01-30T09:23:33.762Z,29.75
2023-01-30T09:24:36.347Z,30.45
2023-01-30T09:25:39.742Z,30.27
2023-01-30T09:26:45.010Z,30.18
2023-01-30T09:27:50.918Z,28.90
2023-01-30T09:28:53.759Z,29.47
2023-01-30T09:29:56.368Z,29.83
2023-01-30T09:30:59.954Z,29.23
2023-01-30T09:32:02.520Z,29.20
2023-01-30T09:33:04.926Z,29.55
2023-01-30T09:34:08.080Z,29.80
2023-01-30T09:35:10.983Z,30.17
2023-01-30T09:36:13.381Z,29.62
2023-01-30T09:37:16.062Z,29.25
2023-01-30T09:38:21.269Z,30.83
2023-01-30T09:39:25.950Z,30.35
2023-01-30T09:41:12.386Z,30.52
2023-01-30T09:42:30.940Z,28.73
2023-01-30T09:44:01.258Z,30.38
2023-01-30T09:45:35.138Z,29.33
2023-01-30T09:46:58.208Z,29.62
2023-01-30T09:48:23.064Z,28.75
2023-01-30T09:49:38.268Z,29.15
2023-01-30T09:50:47.153Z,29.78
2023-01-30T09:52:01.287Z,29.73
2023-01-30T09:53:38.701Z,30.45
2023-01-30T09:54:45.934Z,29.98
2023-01-30T09:55:48.956Z,30.32
2023-01-30T09:56:58.941Z,29.95
2023-01-30T09:58:01.448Z,30.10
2023-01-30T09:59:05.428Z,29.85
2023-01-30T10:00:37.336Z,29.50
2023-01-30T10:01:49.247Z,29.97
2023-01-30T10:03:11.111Z,29.60
2023-01-30T10:04:35.598Z,28.67
2023-01-30T10:05:54.754Z,28.48
2023-01-30T10:07:08.326Z,28.52
2023-01-30T10:08:44.504Z,28.15
2023-01-30T10:10:10.389Z,28.63
2023-01-30T10:11:41.056Z,29.43
2023-01-30T10:13:04.545Z,28.57
2023-01-30T10:14:36.209Z,28.13
2023-01-30T10:15:53.280Z,27.63
2023-01-30T10:17:25.033Z,28.70
2023-01-30T10:18:37.303Z,29.12
2023-01-30T10:19:58.173Z,29.42
2023-01-30T10:21:04.791Z,28.15
2023-01-30T10:22:21.459Z,28.60
2023-01-30T10:24:05.467Z,28.12
2023-01-30T10:25:23.979Z,27.57
2023-01-30T10:26:28.728Z,26.38
2023-01-30T10:27:34.019Z,26.25
2023-01-30T10:28:44.282Z,26.50
2023-01-30T10:29:54.264Z,27.55
2023-01-30T10:31:10.300Z,27.40
2023-01-30T10:32:41.857Z,26.58
2023-01-30T10:36:43.039Z,26.80
2023-01-30T10:38:58.296Z,25.82
2023-01-30T10:40:46.518Z,26.90
2023-01-30T10:44:27.335Z,26.57
2023-01-30T10:45:56.952Z,26.40
2023-01-30T10:47:09.493Z,27.88
2023-01-30T10:48:45.801Z,27.18
2023-01-30T10:50:09.155Z,26.40
2023-01-30T10:51:43.924Z,27.48
2023-01-30T10:53:02.087Z,26.02
2023-01-30T10:54:43.222Z,27.30
2023-01-30T10:55:48.970Z,27.25
2023-01-30T10:57:08.106Z,27.23
2023-01-30T10:58:16.035Z,25.67
2023-01-30T10:59:25.204Z,26.43
2023-01-30T11:01:00.986Z,26.52
2023-01-30T11:02:26.242Z,26.50
2023-01-30T11:03:56.883Z,27.17
2023-01-30T11:05:01.348Z,27.28
2023-01-30T11:06:12.424Z,26.18
2023-01-30T11:07:15.270Z,25.95
2023-01-30T11:08:27.068Z,26.40
2023-01-30T11:09:47.187Z,26.35
2023-01-30T11:10:51.073Z,26.07
2023-01-30T11:11:55.790Z,26.20
2023-01-30T11:13:13.908Z,26.98
2023-01-30T11:14:18.441Z,26.92
2023-01-30T11:15:25.000Z,26.62
2023-01-30T11:16:30.262Z,26.60
2023-01-30T11:17:38.752Z,26.77
2023-01-30T11:19:19.624Z,26.88
2023-01-30T11:20:14.897Z,24.92
2023-01-30T11:21:32.053Z,26.97
2023-01-30T11:22:49.571Z,25.90
2023-01-30T11:23:54.594Z,26.48
2023-01-30T11:25:02.129Z,26.23
2023-01-30T11:26:47.818Z,26.37
2023-01-30T11:28:16.799Z,25.55
2023-01-30T11:29:36.558Z,24.45
2023-01-30T11:30:45.559Z,25.68
2023-01-30T11:31:59.482Z,26.03
2023-01-30T11:33:10.290Z,24.87
2023-01-30T11:34:26.705Z,25.20
2023-01-30T11:35:40.653Z,25.43
2023-01-30T11:36:51.421Z,25.63
2023-01-30T11:40:08.160Z,25.23
2023-01-30T11:41:16.345Z,26.03
2023-01-30T11:42:23.462Z,25.23
2023-01-30T11:43:30.963Z,26.17
2023-01-30T11:44:40.463Z,26.43
2023-01-30T11:45:50.534Z,25.35
2023-01-30T11:46:58.540Z,25.47
2023-01-30T11:49:03.296Z,25.92
2023-01-30T11:50:28.851Z,25.33
2023-01-30T11:51:42.832Z,26.27
2023-01-30T11:52:54.104Z,24.27
2023-01-30T11:54:19.085Z,24.12
2023-01-30T11:55:31.252Z,24.78
2023-01-30T11:56:46.500Z,23.85
2023-01-30T11:57:57.074Z,24.82
2023-01-30T11:59:06.375Z,24.62
2023-01-30T12:00:20.805Z,24.48
2023-01-30T12:01:27.211Z,24.67
2023-01-30T12:02:34.334Z,24.93
2023-01-30T12:03:47.855Z,24.72
2023-01-30T12:05:03.364Z,24.42
2023-01-30T12:06:10.424Z,25.73
2023-01-30T12:07:27.786Z,24.73
2023-01-30T12:08:42.196Z,23.63
2023-01-30T12:09:45.265Z,23.50
2023-01-30T12:10:51.873Z,24.25
2023-01-30T12:11:54.384Z,23.97
2023-01-30T12:13:17.673Z,24.03
2023-01-30T12:14:41.641Z,24.55
2023-01-30T12:15:53.396Z,25.05
2023-01-30T12:17:02.813Z,24.40
2023-01-30T12:18:49.355Z,24.75
2023-01-30T12:20:06.335Z,24.62
2023-01-30T12:21:21.794Z,24.65
2023-01-30T12:22:41.598Z,23.93
2023-01-30T12:23:50.784Z,24.88
2023-01-30T12:25:01.985Z,24.88
2023-01-30T12:26:23.638Z,24.77
2023-01-30T12:32:23.045Z,24.82
2023-01-30T12:38:06.481Z,23.82
2023-01-30T12:41:45.424Z,23.02
2023-01-30T12:43:26.140Z,24.93
2023-01-30T12:44:50.938Z,24.55
2023-01-30T12:46:21.261Z,24.17
2023-01-30T12:49:10.902Z,24.18
2023-01-30T12:50:23.873Z,24.88
2023-01-30T12:51:36.616Z,24.08
2023-01-30T12:53:16.713Z,24.75
2023-01-30T12:54:36.355Z,24.95
2023-01-30T12:55:53.303Z,24.97
2023-01-30T12:57:14.501Z,24.77
2023-01-30T12:58:55.005Z,24.52
2023-01-30T13:00:12.540Z,25.23
2023-01-30T13:01:31.979Z,24.63
2023-01-30T13:03:31.893Z,23.35
2023-01-30T13:04:56.211Z,24.15
2023-01-30T13:06:12.221Z,23.40
2023-01-30T13:07:45.439Z,22.93
2023-01-30T19:38:09.851Z,29.68
2023-01-30T19:39:12.303Z,39.63
2023-01-30T19:40:14.652Z,41.63
2023-01-30T19:41:29.006Z,40.23
2023-01-30T19:42:31.513Z,35.82
2023-01-30T19:43:33.984Z,34.00
2023-01-30T19:44:37.831Z,30.00
2023-01-30T19:45:42.350Z,29.55
2023-01-30T19:46:45.141Z,30.10
2023-01-30T19:47:47.627Z,29.45
2023-01-30T19:48:50.379Z,28.73
2023-01-30T19:49:53.987Z,29.57
2023-01-30T19:50:57.237Z,28.72
2023-01-30T19:52:03.682Z,32.52
2023-01-30T19:53:06.131Z,37.55
2023-01-30T19:54:12.405Z,39.02
2023-01-30T19:55:18.690Z,38.13
2023-01-30T19:56:22.663Z,35.68
2023-01-30T19:57:25.647Z,34.65
2023-01-30T19:58:28.133Z,32.98
2023-01-30T19:59:31.076Z,29.50
2023-01-30T20:00:33.820Z,28.15
2023-01-30T20:01:42.469Z,28.32
2023-01-30T20:02:45.610Z,34.53
2023-01-30T20:03:51.320Z,40.93
2023-01-30T20:04:55.717Z,54.73
2023-01-30T20:06:14.169Z,69.62
2023-01-30T20:07:16.802Z,49.80
2023-01-30T20:08:31.998Z,38.52
2023-01-30T20:09:36.379Z,36.35
2023-01-30T20:10:39.179Z,35.75
2023-01-30T20:11:42.460Z,37.73
2023-01-30T20:12:46.820Z,37.52
2023-01-30T20:14:11.649Z,36.08
2023-01-30T20:15:13.988Z,34.02
2023-01-30T20:16:20.452Z,34.47
2023-01-30T20:17:23.098Z,33.58
2023-01-30T20:18:25.690Z,32.73
2023-01-30T20:19:28.303Z,33.28
2023-01-30T20:20:31.635Z,32.08
2023-01-30T20:21:34.944Z,33.85
2023-01-30T20:22:37.406Z,34.60
2023-01-30T20:23:44.865Z,35.67
2023-01-30T20:24:48.218Z,36.17
2023-01-30T20:25:50.603Z,35.68
2023-01-30T20:26:53.031Z,37.47
2023-01-30T20:27:55.397Z,39.17
2023-01-30T20:28:58.312Z,36.72
2023-01-30T20:30:00.743Z,37.10
2023-01-30T20:31:14.863Z,35.03
2023-01-30T20:32:17.301Z,35.52
2023-01-30T20:33:19.694Z,35.78
2023-01-30T20:34:22.228Z,35.85
2023-01-30T20:35:24.625Z,36.27
2023-01-30T20:36:27.247Z,36.70
2023-01-30T20:37:29.658Z,35.30
2023-01-30T20:38:33.562Z,36.15
2023-01-30T20:39:35.966Z,33.82
2023-01-30T20:40:38.527Z,33.42
2023-01-30T20:41:41.148Z,33.47
2023-01-30T20:42:44.720Z,33.35
2023-01-30T20:43:51.015Z,32.13
2023-01-30T20:44:53.469Z,30.33
2023-01-30T20:46:10.509Z,30.72
2023-01-30T20:47:13.044Z,31.03
2023-01-30T20:48:17.095Z,30.55
2023-01-30T20:49:21.826Z,31.47
2023-01-30T20:50:25.097Z,30.42
2023-01-30T20:51:30.209Z,30.75
2023-01-30T20:52:32.925Z,28.48
2023-01-30T20:53:37.552Z,25.83
2023-01-30T20:54:40.597Z,25.13
2023-01-30T20:55:48.580Z,25.55
2023-01-30T20:56:53.219Z,23.02
2023-01-30T20:57:55.705Z,23.10
2023-01-30T20:58:58.105Z,22.52
2023-01-30T21:00:00.682Z,22.65
2023-01-30T21:01:12.829Z,21.38
2023-01-30T21:02:15.246Z,20.77
2023-01-30T21:03:17.636Z,20.42
2023-01-30T21:04:21.938Z,20.62
2023-01-30T21:05:24.432Z,20.73
2023-01-30T21:06:41.263Z,21.87
2023-01-30T21:07:45.850Z,20.37
2023-01-30T21:08:48.314Z,21.18
2023-01-30T21:09:50.797Z,22.50
2023-01-30T21:10:54.423Z,21.70
2023-01-30T21:11:57.032Z,22.55
2023-01-30T21:13:02.092Z,22.72
2023-01-30T21:14:05.243Z,22.28
2023-01-30T21:15:08.403Z,21.40
2023-01-30T21:16:15.658Z,21.93
2023-01-30T21:17:18.112Z,21.30
2023-01-30T21:18:20.505Z,20.97
2023-01-30T21:19:23.389Z,19.68
2023-01-30T21:20:26.106Z,23.17
2023-01-30T21:21:42.142Z,23.27
2023-01-30T21:22:45.644Z,25.07